Time;durP1;ratioP1;P1;durP2;ratioP2;P2;SDS_P1;SDS_P2;PMS_P1;PMS_P2;Temp;Humidity;BMP_temperature;BMP_pressure;BME280_temperature;BME280_humidity;BME280_pressure;Samples;Min_cycle;Max_cycle;Signal;HPM_P1;HPM_P2
2021/10/04 00:02:10;;;;;;;0.50;0.40;;;15.50;99.90;;;;;;5033348;28;20451;-60
2021/10/04 00:04:37;;;;;;;1.20;0.50;;;15.40;99.90;;;;;;5036118;28;20449;-60
2021/10/04 00:07:06;;;;;;;0.60;0.50;;;15.30;99.90;;;;;;5030568;28;20473;-60
2021/10/04 00:09:34;;;;;;;0.60;0.40;;;15.10;99.90;;;;;;5017537;28;20450;-59
2021/10/04 00:12:01;;;;;;;0.60;0.40;;;14.90;99.90;;;;;;5035650;28;20511;-60
2021/10/04 00:14:29;;;;;;;1.37;0.50;;;14.80;99.90;;;;;;5032493;28;20449;-60
2021/10/04 00:16:56;;;;;;;0.60;0.50;;;14.60;99.90;;;;;;5025980;28;20473;-60
2021/10/04 00:19:23;;;;;;;0.60;0.50;;;14.70;99.90;;;;;;5016162;28;20868;-60
2021/10/04 00:21:50;;;;;;;3.13;0.60;;;14.80;99.90;;;;;;5035135;28;20958;-60
2021/10/04 00:24:19;;;;;;;1.43;0.40;;;14.80;99.90;;;;;;5035916;28;20826;-60
2021/10/04 00:26:46;;;;;;;0.70;0.50;;;14.70;99.90;;;;;;5034958;28;20480;-60
2021/10/04 00:29:13;;;;;;;0.70;0.50;;;14.60;99.90;;;;;;5036164;28;20453;-60
2021/10/04 00:31:40;;;;;;;1.27;0.40;;;14.40;99.90;;;;;;5035882;28;20452;-60
2021/10/04 00:34:07;;;;;;;0.70;0.40;;;14.30;99.90;;;;;;5024821;28;20472;-60
2021/10/04 00:36:34;;;;;;;0.57;0.40;;;14.20;99.90;;;;;;5032535;28;20484;-60
2021/10/04 00:39:01;;;;;;;0.60;0.40;;;14.10;99.90;;;;;;5035725;28;20884;-59
2021/10/04 00:41:30;;;;;;;0.50;0.40;;;14.20;99.90;;;;;;5034771;28;20456;-60
2021/10/04 00:43:57;;;;;;;0.50;0.40;;;14.10;99.90;;;;;;5035750;28;20475;-59
2021/10/04 00:46:25;;;;;;;0.63;0.40;;;13.90;99.90;;;;;;5035711;28;20484;-60
2021/10/04 00:48:53;;;;;;;0.60;0.40;;;13.90;99.90;;;;;;5034790;28;20511;-60
2021/10/04 00:51:20;;;;;;;0.60;0.30;;;13.90;99.90;;;;;;5030860;28;20480;-60
2021/10/04 00:53:48;;;;;;;0.60;0.40;;;13.90;99.90;;;;;;5032135;28;20878;-60
2021/10/04 00:56:15;;;;;;;0.93;0.50;;;14.00;99.90;;;;;;5032460;28;20548;-60
2021/10/04 00:58:44;;;;;;;0.60;0.40;;;14.00;99.90;;;;;;5014812;28;20462;-60
2021/10/04 01:01:11;;;;;;;0.60;0.40;;;14.10;99.90;;;;;;5024912;28;20452;-60
2021/10/04 01:03:39;;;;;;;0.70;0.50;;;14.10;99.90;;;;;;5032195;28;20534;-60
2021/10/04 01:06:06;;;;;;;0.67;0.43;;;14.10;99.90;;;;;;5031315;28;20473;-60
2021/10/04 01:08:33;;;;;;;1.63;0.60;;;14.00;99.90;;;;;;5031377;28;20452;-60
2021/10/04 01:11:00;;;;;;;0.60;0.40;;;14.00;99.90;;;;;;5031251;28;20950;-60
2021/10/04 01:13:27;;;;;;;0.60;0.50;;;14.20;99.90;;;;;;5032154;28;20444;-60
2021/10/04 01:15:56;;;;;;;0.60;0.50;;;14.20;99.90;;;;;;5024076;28;20535;-60
2021/10/04 01:18:24;;;;;;;0.60;0.40;;;14.30;99.90;;;;;;5012248;28;21014;-60
2021/10/04 01:20:52;;;;;;;0.80;0.57;;;14.20;99.90;;;;;;5027131;28;20533;-60
2021/10/04 01:23:19;;;;;;;0.70;0.60;;;14.10;99.90;;;;;;5031899;28;20891;-60
2021/10/04 01:25:47;;;;;;;0.60;0.47;;;14.00;99.90;;;;;;5031052;28;20448;-60
2021/10/04 01:28:14;;;;;;;0.63;0.50;;;14.10;99.90;;;;;;5032278;28;20452;-60
2021/10/04 01:30:41;;;;;;;0.70;0.40;;;14.10;99.90;;;;;;5032450;28;20860;-60
2021/10/04 01:33:08;;;;;;;0.60;0.50;;;13.90;99.90;;;;;;5031828;28;20448;-60
2021/10/04 01:35:35;;;;;;;0.70;0.50;;;13.70;99.90;;;;;;5029262;28;20997;-60
2021/10/04 01:38:04;;;;;;;0.80;0.50;;;13.50;99.90;;;;;;5031959;28;21012;-60
2021/10/04 01:40:33;;;;;;;0.60;0.50;;;13.50;99.90;;;;;;5031795;28;20452;-60
2021/10/04 01:43:00;;;;;;;0.70;0.50;;;13.60;99.90;;;;;;5032067;28;20452;-60
2021/10/04 01:45:29;;;;;;;0.90;0.60;;;13.70;99.90;;;;;;5031200;28;20526;-60
2021/10/04 01:47:59;;;;;;;1.17;0.50;;;13.40;99.90;;;;;;5031908;28;20619;-60
2021/10/04 01:50:30;;;;;;;1.57;0.87;;;13.30;99.90;;;;;;5032100;28;20463;-59
2021/10/04 01:59:42;;;;;;;0.60;0.47;;;13.20;99.90;;;;;;5012547;28;20910;-60
2021/10/04 02:02:09;;;;;;;0.70;0.50;;;13.10;99.90;;;;;;5012195;28;20445;-60
2021/10/04 02:04:36;;;;;;;1.03;0.50;;;13.20;99.90;;;;;;5020604;28;20506;-60
2021/10/04 02:07:03;;;;;;;0.60;0.50;;;13.30;99.90;;;;;;5031905;28;20465;-60
2021/10/04 02:09:30;;;;;;;0.60;0.47;;;13.30;99.90;;;;;;5031815;28;20449;-60
2021/10/04 02:11:57;;;;;;;1.33;0.40;;;13.10;99.90;;;;;;5031687;28;20530;-60
2021/10/04 02:14:24;;;;;;;0.70;0.50;;;13.10;99.90;;;;;;5027268;28;20453;-60
2021/10/04 02:16:53;;;;;;;0.60;0.40;;;13.20;99.90;;;;;;5015477;28;20563;-59
2021/10/04 02:19:19;;;;;;;0.60;0.50;;;13.30;99.90;;;;;;5016286;28;20883;-59
2021/10/04 02:21:46;;;;;;;0.60;0.50;;;13.30;99.90;;;;;;5034872;28;20514;-59
2021/10/04 02:24:14;;;;;;;0.60;0.47;;;13.20;99.90;;;;;;5025860;28;20502;-59
2021/10/04 02:26:42;;;;;;;0.80;0.50;;;13.10;99.90;;;;;;5015345;28;20523;-59
2021/10/04 02:29:09;;;;;;;0.70;0.50;;;13.10;99.90;;;;;;5015615;28;20870;-59
2021/10/04 02:31:36;;;;;;;0.70;0.50;;;13.10;99.90;;;;;;5033326;28;20506;-59
2021/10/04 02:34:04;;;;;;;1.87;0.50;;;13.20;99.90;;;;;;5033959;28;21002;-59
2021/10/04 02:36:31;;;;;;;0.93;0.50;;;13.20;99.90;;;;;;5034807;28;20488;-59
2021/10/04 02:38:58;;;;;;;0.70;0.50;;;13.20;99.90;;;;;;5034626;28;20456;-60
2021/10/04 02:41:25;;;;;;;3.63;0.50;;;13.20;99.90;;;;;;5033830;28;20456;-60
2021/10/04 02:43:52;;;;;;;0.60;0.40;;;13.20;99.90;;;;;;5033701;28;20538;-60
2021/10/04 02:46:19;;;;;;;1.00;0.90;;;13.30;99.90;;;;;;5034013;28;20972;-60
2021/10/04 02:48:46;;;;;;;1.27;0.50;;;13.30;99.90;;;;;;5034601;28;21019;-59
2021/10/04 02:51:15;;;;;;;2.13;0.50;;;13.40;99.90;;;;;;5033721;28;20498;-59
2021/10/04 02:53:42;;;;;;;4.20;0.60;;;13.50;99.90;;;;;;5030794;28;20502;-60
2021/10/04 02:56:09;;;;;;;0.57;0.40;;;13.60;99.90;;;;;;5033947;28;20534;-59
2021/10/04 02:58:36;;;;;;;1.40;0.47;;;13.70;99.90;;;;;;5034398;28;20909;-59
2021/10/04 03:01:03;;;;;;;1.37;0.40;;;13.90;99.90;;;;;;5034420;28;20934;-59
2021/10/04 03:03:30;;;;;;;1.33;0.50;;;13.90;99.90;;;;;;5034421;28;20934;-59
2021/10/04 03:05:57;;;;;;;0.60;0.50;;;14.00;99.90;;;;;;5033937;28;20847;-60
2021/10/04 03:08:25;;;;;;;0.60;0.50;;;14.10;99.90;;;;;;5031872;28;20449;-59
2021/10/04 03:10:52;;;;;;;4.47;0.80;;;14.20;99.90;;;;;;5032715;28;20456;-60
2021/10/04 03:13:19;;;;;;;0.60;0.47;;;14.20;99.90;;;;;;5034048;28;20503;-60
2021/10/04 03:15:46;;;;;;;0.70;0.50;;;14.10;99.90;;;;;;5033411;28;21005;-60
2021/10/04 03:18:13;;;;;;;0.70;0.50;;;14.10;99.90;;;;;;5034289;28;20869;-60
2021/10/04 03:20:41;;;;;;;1.50;0.50;;;14.00;99.90;;;;;;5033808;28;20453;-59
2021/10/04 03:23:08;;;;;;;0.60;0.50;;;14.00;99.90;;;;;;5033958;28;20507;-60
2021/10/04 03:25:37;;;;;;;1.83;0.50;;;13.90;99.90;;;;;;5026331;28;20511;-59
2021/10/04 03:28:05;;;;;;;0.60;0.40;;;13.70;99.90;;;;;;5033982;28;20456;-59
2021/10/04 03:30:33;;;;;;;0.80;0.63;;;13.80;99.90;;;;;;5033640;28;20518;-60
2021/10/04 03:33:00;;;;;;;1.27;0.77;;;13.70;99.90;;;;;;5033355;28;20836;-60
2021/10/04 03:35:28;;;;;;;1.00;0.70;;;13.70;99.90;;;;;;5030045;28;21025;-60
2021/10/04 03:37:55;;;;;;;0.70;0.50;;;13.70;99.90;;;;;;5033210;28;20472;-60
2021/10/04 03:40:26;;;;;;;0.70;0.60;;;13.70;99.90;;;;;;5033456;28;20456;-60
2021/10/04 03:42:54;;;;;;;0.90;0.50;;;13.60;99.90;;;;;;5033685;28;20491;-60
2021/10/04 03:45:22;;;;;;;0.70;0.70;;;13.50;99.90;;;;;;5029310;28;20453;-60
2021/10/04 03:47:49;;;;;;;0.80;0.60;;;13.60;99.90;;;;;;5033484;28;20480;-59
2021/10/04 03:50:17;;;;;;;0.80;0.77;;;13.70;99.90;;;;;;5033345;28;20449;-60
2021/10/04 03:52:44;;;;;;;0.70;0.70;;;13.80;99.90;;;;;;5033327;28;20456;-59
2021/10/04 03:55:13;;;;;;;0.80;0.80;;;13.80;99.90;;;;;;5033210;28;20448;-60
2021/10/04 03:57:41;;;;;;;0.70;0.70;;;13.80;99.90;;;;;;5033235;28;20488;-60
2021/10/04 04:00:14;;;;;;;0.80;0.70;;;13.80;99.90;;;;;;5032331;28;20837;-60
2021/10/04 04:02:41;;;;;;;0.90;0.80;;;13.80;99.90;;;;;;5029518;28;20456;-60
2021/10/04 04:05:09;;;;;;;1.73;0.70;;;13.90;99.90;;;;;;5032303;28;20515;-60
2021/10/04 04:07:36;;;;;;;1.80;0.70;;;13.80;99.90;;;;;;5033097;28;20464;-60
2021/10/04 04:16:49;;;;;;;1.33;0.70;;;14.00;99.90;;;;;;5017857;28;20572;-59
2021/10/04 04:19:16;;;;;;;0.80;0.70;;;14.10;99.90;;;;;;5032716;28;20452;-59
2021/10/04 04:21:43;;;;;;;2.40;0.80;;;14.20;99.90;;;;;;5032022;28;21008;-60
2021/10/04 04:24:10;;;;;;;0.90;0.77;;;13.90;99.90;;;;;;5032642;28;20479;-59
2021/10/04 04:26:37;;;;;;;1.67;0.80;;;13.80;99.90;;;;;;5032504;28;20512;-59
2021/10/04 04:29:04;;;;;;;1.73;0.80;;;13.70;99.90;;;;;;5013329;28;20441;-59
2021/10/04 04:31:31;;;;;;;0.93;0.70;;;13.80;99.90;;;;;;5012928;28;20450;-60
2021/10/04 04:34:00;;;;;;;0.97;0.67;;;13.70;99.90;;;;;;5015051;28;20477;-60
2021/10/04 04:36:27;;;;;;;1.10;0.63;;;13.50;99.90;;;;;;5031182;28;20915;-59
2021/10/04 04:38:54;;;;;;;0.87;0.60;;;13.50;99.90;;;;;;5015883;28;20449;-60
2021/10/04 04:41:21;;;;;;;3.67;0.60;;;13.50;99.90;;;;;;5032376;28;20448;-59
2021/10/04 04:43:48;;;;;;;0.60;0.43;;;13.40;99.90;;;;;;5032664;28;20502;-60
2021/10/04 04:46:15;;;;;;;2.10;0.50;;;13.40;99.90;;;;;;5029671;28;20472;-59
2021/10/04 04:48:42;;;;;;;0.80;0.60;;;13.40;99.90;;;;;;5031413;28;20453;-59
2021/10/04 04:51:10;;;;;;;0.97;0.70;;;13.40;99.90;;;;;;5023696;28;20454;-59
2021/10/04 04:53:37;;;;;;;1.43;0.57;;;13.50;99.90;;;;;;5012864;28;20457;-59
2021/10/04 04:56:04;;;;;;;0.60;0.57;;;13.60;99.90;;;;;;5027797;28;20906;-60
2021/10/04 04:58:31;;;;;;;0.60;0.53;;;13.70;99.90;;;;;;5021261;28;20496;-59
2021/10/04 05:00:58;;;;;;;0.80;0.60;;;13.70;99.90;;;;;;5015967;28;20454;-59
2021/10/04 05:03:25;;;;;;;0.80;0.70;;;13.70;99.90;;;;;;5017675;28;20445;-60
2021/10/04 05:05:52;;;;;;;0.87;0.43;;;13.70;99.90;;;;;;5032018;28;20510;-59
2021/10/04 05:08:20;;;;;;;1.57;0.60;;;13.70;99.90;;;;;;5022147;28;20967;-59
2021/10/04 05:10:47;;;;;;;0.60;0.40;;;13.70;99.90;;;;;;5012313;28;20445;-60
2021/10/04 05:13:14;;;;;;;1.93;0.80;;;13.70;99.90;;;;;;5012603;28;20474;-60
2021/10/04 05:15:41;;;;;;;0.83;0.50;;;13.80;99.90;;;;;;5018334;28;20518;-60
2021/10/04 05:18:08;;;;;;;0.80;0.57;;;13.90;99.90;;;;;;5023350;28;20544;-60
2021/10/04 05:20:36;;;;;;;1.07;0.70;;;14.10;99.90;;;;;;5012182;28;20900;-60
2021/10/04 05:23:03;;;;;;;0.80;0.67;;;14.30;99.90;;;;;;5012388;28;20507;-60
2021/10/04 05:25:35;;;;;;;3.47;0.90;;;14.20;99.90;;;;;;5012402;28;20450;-60
2021/10/04 05:28:02;;;;;;;1.53;0.90;;;14.20;99.90;;;;;;5015317;28;20947;-60
2021/10/04 05:30:29;;;;;;;0.80;0.70;;;14.30;99.90;;;;;;5011915;28;20457;-60
2021/10/04 05:32:56;;;;;;;0.70;0.60;;;14.20;99.90;;;;;;5012254;28;20453;-60
2021/10/04 05:35:26;;;;;;;1.97;1.03;;;14.20;99.90;;;;;;5017240;28;20479;-59
2021/10/04 05:37:53;;;;;;;3.60;0.60;;;14.20;99.90;;;;;;5030596;28;20476;-60
2021/10/04 05:40:21;;;;;;;2.93;0.70;;;14.10;99.90;;;;;;5031444;28;20884;-59
2021/10/04 05:42:49;;;;;;;1.93;0.77;;;14.00;99.90;;;;;;5017615;28;20500;-60
2021/10/04 05:45:17;;;;;;;2.90;0.97;;;13.80;99.90;;;;;;5012092;28;20504;-60
2021/10/04 05:47:44;;;;;;;0.70;0.60;;;13.70;99.90;;;;;;5014781;28;20528;-60
2021/10/04 05:50:12;;;;;;;0.90;0.70;;;13.80;99.90;;;;;;5024670;28;20513;-60
2021/10/04 05:52:40;;;;;;;1.37;0.70;;;13.80;99.90;;;;;;5020633;28;20908;-59
2021/10/04 05:55:08;;;;;;;1.27;1.17;;;13.60;99.90;;;;;;5026717;28;20488;-60
2021/10/04 05:57:36;;;;;;;2.20;0.90;;;13.60;99.90;;;;;;5032677;28;20484;-60
2021/10/04 06:00:06;;;;;;;1.77;0.80;;;13.50;99.90;;;;;;5033309;28;20510;-60
2021/10/04 06:02:33;;;;;;;1.10;0.80;;;13.70;99.90;;;;;;5033728;28;20942;-59
2021/10/04 06:05:00;;;;;;;2.10;0.70;;;13.80;99.90;;;;;;5026888;28;20518;-60
2021/10/04 06:07:27;;;;;;;1.10;0.80;;;13.90;99.90;;;;;;5031942;28;20549;-59
2021/10/04 06:09:54;;;;;;;0.70;0.60;;;13.90;99.90;;;;;;5032409;28;20453;-60
2021/10/04 06:12:26;;;;;;;1.20;1.10;;;13.80;99.90;;;;;;5033774;28;20879;-60
2021/10/04 06:14:53;;;;;;;2.50;1.00;;;13.90;99.90;;;;;;5028691;28;20823;-59
2021/10/04 06:17:22;;;;;;;0.80;0.63;;;13.90;99.90;;;;;;5031755;28;20484;-60
2021/10/04 06:19:50;;;;;;;1.27;0.80;;;13.90;99.90;;;;;;5032976;28;21043;-60
2021/10/04 06:22:17;;;;;;;0.80;0.80;;;14.00;99.90;;;;;;5027123;28;21017;-60
2021/10/04 06:24:44;;;;;;;1.10;0.93;;;14.00;99.90;;;;;;5024379;28;20877;-59
2021/10/04 06:27:12;;;;;;;1.30;0.83;;;14.00;99.90;;;;;;5018555;28;20465;-60
2021/10/04 06:29:39;;;;;;;0.93;0.80;;;13.90;99.90;;;;;;5026739;28;20491;-60
2021/10/04 06:32:10;;;;;;;1.53;0.90;;;13.80;99.90;;;;;;5025223;28;20524;-59
2021/10/04 06:34:38;;;;;;;2.60;2.23;;;13.80;99.90;;;;;;5030621;28;20448;-60
2021/10/04 06:37:09;;;;;;;1.97;1.43;;;13.60;99.90;;;;;;5024809;28;20481;-59
2021/10/04 06:39:36;;;;;;;1.30;1.00;;;13.60;99.90;;;;;;5031211;28;20448;-58
2021/10/04 06:42:04;;;;;;;1.10;1.00;;;13.60;99.90;;;;;;5034307;28;20456;-59
2021/10/04 06:44:31;;;;;;;1.20;1.10;;;13.50;99.90;;;;;;5034721;28;20540;-58
2021/10/04 06:46:58;;;;;;;0.90;0.90;;;13.50;99.90;;;;;;5018601;28;20523;-58
2021/10/04 06:49:25;;;;;;;0.83;0.83;;;13.50;99.90;;;;;;5014908;28;20511;-58
2021/10/04 06:51:53;;;;;;;0.70;0.50;;;13.50;99.90;;;;;;5026365;28;21004;-58
2021/10/04 06:54:20;;;;;;;0.60;0.60;;;13.70;99.90;;;;;;5030459;28;20461;-58
2021/10/04 06:56:48;;;;;;;0.90;0.70;;;13.60;99.90;;;;;;5031942;28;20488;-58
2021/10/04 06:59:18;;;;;;;0.87;0.67;;;13.70;99.90;;;;;;5033746;28;20442;-58
2021/10/04 07:01:45;;;;;;;2.10;0.77;;;13.80;99.90;;;;;;5034217;28;20543;-58
2021/10/04 07:04:12;;;;;;;0.60;0.50;;;13.80;99.90;;;;;;5034459;28;20449;-58
2021/10/04 07:06:40;;;;;;;0.60;0.50;;;13.70;99.90;;;;;;5034294;28;20467;-58
2021/10/04 07:09:08;;;;;;;0.83;0.50;;;13.70;99.90;;;;;;5034426;28;20459;-58
2021/10/04 07:11:36;;;;;;;1.33;0.60;;;13.80;99.90;;;;;;5034060;28;20484;-58
2021/10/04 07:14:03;;;;;;;0.77;0.60;;;13.80;99.90;;;;;;5024854;28;20457;-58
2021/10/04 07:16:31;;;;;;;1.23;0.50;;;13.90;99.90;;;;;;5020245;28;20480;-58
2021/10/04 07:18:58;;;;;;;0.70;0.53;;;14.00;99.90;;;;;;5015254;28;20507;-58
2021/10/04 07:21:25;;;;;;;0.70;0.50;;;14.10;99.90;;;;;;5029597;28;20480;-59
2021/10/04 07:23:52;;;;;;;0.60;0.40;;;14.20;99.90;;;;;;5016837;28;20449;-58
2021/10/04 07:26:22;;;;;;;0.73;0.70;;;14.30;99.90;;;;;;5014134;28;20473;-59
2021/10/04 07:28:49;;;;;;;2.80;1.10;;;14.40;99.90;;;;;;5026386;28;20483;-58
2021/10/04 07:31:16;;;;;;;1.10;1.00;;;14.40;99.90;;;;;;5033249;28;20954;-58
2021/10/04 07:33:44;;;;;;;0.93;0.80;;;14.40;99.90;;;;;;5032531;28;20517;-58
2021/10/04 07:36:12;;;;;;;1.20;1.10;;;14.40;99.90;;;;;;5028162;28;20472;-58
2021/10/04 07:38:40;;;;;;;4.77;1.20;;;14.50;99.90;;;;;;5023361;28;20487;-58
2021/10/04 07:41:07;;;;;;;1.10;1.00;;;14.40;99.90;;;;;;5045694;28;20456;-58
2021/10/04 07:43:39;;;;;;;4.47;1.70;;;14.30;99.90;;;;;;5036514;28;20506;-58
2021/10/04 07:46:09;;;;;;;7.47;1.37;;;14.30;99.90;;;;;;5032469;28;20534;-59
2021/10/04 07:48:36;;;;;;;1.13;1.03;;;14.30;99.90;;;;;;5030685;28;20897;-58
2021/10/04 07:51:04;;;;;;;1.17;0.87;;;14.30;99.90;;;;;;5033339;28;20936;-59
2021/10/04 07:53:32;;;;;;;3.47;1.00;;;14.20;99.90;;;;;;5040820;28;20468;-58
2021/10/04 07:55:59;;;;;;;1.75;1.20;;;14.30;99.90;;;;;;5026252;28;20452;-59
2021/10/04 07:58:28;;;;;;;1.67;1.07;;;14.70;99.90;;;;;;5032324;28;20723;-58
2021/10/04 08:00:56;;;;;;;2.27;0.77;;;14.70;99.90;;;;;;5017971;28;20453;-57
2021/10/04 08:03:23;;;;;;;2.67;0.70;;;14.50;99.90;;;;;;5031188;28;20444;-58
2021/10/04 08:05:54;;;;;;;0.70;0.70;;;14.40;99.90;;;;;;5032793;28;20452;-59
2021/10/04 08:08:21;;;;;;;2.10;0.70;;;14.20;99.90;;;;;;5033072;28;20448;-59
2021/10/04 08:10:48;;;;;;;3.10;1.10;;;14.30;99.90;;;;;;5043843;28;20444;-59
2021/10/04 08:13:15;;;;;;;4.17;2.67;;;14.20;99.90;;;;;;5035072;28;20456;-58
2021/10/04 08:15:42;;;;;;;1.73;1.50;;;14.40;99.90;;;;;;5012444;28;20503;-58
2021/10/04 08:18:10;;;;;;;1.37;1.27;;;14.50;99.90;;;;;;5019239;28;20476;-58
2021/10/04 08:20:37;;;;;;;2.20;2.00;;;14.40;99.90;;;;;;5032519;28;20448;-58
2021/10/04 08:23:05;;;;;;;2.00;1.10;;;14.40;99.90;;;;;;5031171;28;20550;-58
2021/10/04 08:25:32;;;;;;;3.77;1.70;;;14.30;99.90;;;;;;5023751;28;20474;-58
2021/10/04 08:27:59;;;;;;;1.30;1.13;;;14.20;99.90;;;;;;5027393;28;20480;-58
2021/10/04 08:30:26;;;;;;;1.27;1.17;;;14.00;99.90;;;;;;5025119;28;20467;-58
2021/10/04 08:32:53;;;;;;;1.13;1.03;;;13.90;99.90;;;;;;5022550;28;20468;-59
2021/10/04 08:35:22;;;;;;;1.30;1.13;;;14.00;99.90;;;;;;5023558;28;20464;-59
2021/10/04 08:37:49;;;;;;;2.10;1.27;;;14.00;99.90;;;;;;5023798;28;20957;-59
2021/10/04 08:40:17;;;;;;;5.37;1.23;;;14.10;99.90;;;;;;5024312;28;20838;-59
2021/10/04 08:42:45;;;;;;;2.67;1.40;;;14.20;99.90;;;;;;5025937;28;20511;-58
2021/10/04 08:45:13;;;;;;;1.30;1.20;;;14.20;99.90;;;;;;5024427;28;20502;-58
2021/10/04 08:47:41;;;;;;;2.90;1.10;;;14.20;99.90;;;;;;5024219;28;20484;-58
2021/10/04 08:50:10;;;;;;;1.90;1.20;;;14.20;99.90;;;;;;5024538;28;20468;-58
2021/10/04 08:52:39;;;;;;;1.50;1.37;;;14.20;99.90;;;;;;5024310;28;20527;-58
2021/10/04 08:55:07;;;;;;;2.00;1.37;;;14.30;99.90;;;;;;5022723;28;20889;-58
2021/10/04 08:57:34;;;;;;;4.47;1.20;;;14.30;99.90;;;;;;5023730;28;20480;-58
2021/10/04 09:00:02;;;;;;;1.30;0.90;;;14.40;99.90;;;;;;5024080;28;20483;-58
2021/10/04 09:02:31;;;;;;;1.00;0.90;;;14.50;99.90;;;;;;5023828;28;20534;-57
2021/10/04 09:05:15;;;;;;;1.30;1.20;;;14.50;99.90;;;;;;5022950;28;20468;-58
2021/10/04 09:07:45;;;;;;;2.90;2.00;;;14.40;99.90;;;;;;5022962;28;20912;-58
2021/10/04 09:10:15;;;;;;;3.50;1.70;;;14.30;99.90;;;;;;5022932;28;20559;-58
2021/10/04 09:12:49;;;;;;;1.33;1.23;;;14.30;99.90;;;;;;5023442;28;20911;-58
2021/10/04 09:15:24;;;;;;;2.03;1.53;;;14.40;99.90;;;;;;5023697;28;20466;-58
2021/10/04 09:17:52;;;;;;;2.80;1.10;;;14.60;99.90;;;;;;5023437;28;20483;-58
2021/10/04 09:20:20;;;;;;;4.90;1.10;;;14.70;99.90;;;;;;5023846;28;20898;-58
2021/10/04 09:22:49;;;;;;;1.37;1.10;;;14.60;99.90;;;;;;5022290;28;20461;-58
2021/10/04 09:25:17;;;;;;;1.43;0.90;;;14.60;99.90;;;;;;5030795;28;20452;-57
2021/10/04 09:27:46;;;;;;;3.67;0.90;;;14.60;99.90;;;;;;5022431;28;20480;-58
2021/10/04 09:30:16;;;;;;;1.80;0.80;;;14.60;99.90;;;;;;5022955;28;20973;-58
2021/10/04 09:32:46;;;;;;;1.90;0.70;;;14.40;99.90;;;;;;5022681;28;20464;-58
2021/10/04 09:35:26;;;;;;;1.37;0.70;;;14.30;99.90;;;;;;5022406;28;20463;-58
2021/10/04 09:38:16;;;;;;;0.63;0.63;;;14.20;99.90;;;;;;5021762;28;20511;-58
2021/10/04 09:40:44;;;;;;;0.70;0.60;;;14.00;99.90;;;;;;5023380;28;21041;-58
2021/10/04 09:43:24;;;;;;;1.00;0.70;;;13.90;99.90;;;;;;5023397;28;20464;-58
2021/10/04 09:46:00;;;;;;;0.70;0.60;;;14.00;99.90;;;;;;5025154;28;20950;-58
2021/10/04 09:48:27;;;;;;;0.80;0.60;;;14.10;99.90;;;;;;5031216;28;20444;-59
2021/10/04 09:50:54;;;;;;;1.00;0.80;;;14.20;99.90;;;;;;5027521;28;20962;-59
2021/10/04 09:53:23;;;;;;;1.00;0.70;;;14.30;99.90;;;;;;5024732;28;20460;-59
2021/10/04 09:55:50;;;;;;;1.50;0.70;;;14.50;99.90;;;;;;5022728;28;20468;-58
2021/10/04 09:58:19;;;;;;;0.70;0.60;;;14.70;99.90;;;;;;5022321;28;20997;-58
2021/10/04 10:00:50;;;;;;;0.60;0.53;;;14.90;99.90;;;;;;5023378;28;20519;-59
2021/10/04 10:03:19;;;;;;;0.60;0.60;;;14.80;99.90;;;;;;5023092;28;20460;-59
2021/10/04 10:05:49;;;;;;;0.60;0.60;;;14.80;99.90;;;;;;5022211;28;20468;-59
2021/10/04 10:08:19;;;;;;;0.80;0.70;;;14.90;99.90;;;;;;5023763;28;20886;-59
2021/10/04 10:10:49;;;;;;;0.90;0.60;;;14.90;99.90;;;;;;5023338;28;20457;-59
2021/10/04 10:13:18;;;;;;;0.90;0.63;;;15.00;99.90;;;;;;5023117;28;20913;-59
2021/10/04 10:15:50;;;;;;;0.70;0.70;;;14.90;99.90;;;;;;5026411;28;20468;-59
2021/10/04 10:18:21;;;;;;;0.87;0.80;;;15.10;99.90;;;;;;5022845;28;20550;-59
2021/10/04 10:20:56;;;;;;;1.47;0.90;;;15.20;99.90;;;;;;5023176;28;20681;-58
2021/10/04 10:23:42;;;;;;;1.00;0.90;;;15.30;99.90;;;;;;5019157;28;20823;-57
2021/10/04 10:26:33;;;;;;;1.07;0.87;;;15.50;99.90;;;;;;5021658;28;20484;-59
2021/10/04 10:29:28;;;;;;;1.03;0.80;;;15.50;99.90;;;;;;5023355;28;20677;-58
2021/10/04 10:32:10;;;;;;;1.10;1.00;;;15.70;99.90;;;;;;5023790;28;20526;-58
2021/10/04 10:34:52;;;;;;;1.03;0.90;;;15.70;99.90;;;;;;5023752;28;20464;-58
2021/10/04 10:37:44;;;;;;;1.27;1.13;;;15.20;99.90;;;;;;5025632;28;20480;-59
2021/10/04 10:40:13;;;;;;;2.83;0.93;;;15.30;99.90;;;;;;5026440;28;20472;-58
2021/10/04 10:42:58;;;;;;;2.13;0.97;;;15.40;99.90;;;;;;5028512;28;20472;-58
2021/10/04 10:45:27;;;;;;;1.30;1.03;;;15.30;99.90;;;;;;5026303;28;20549;-58
2021/10/04 10:47:59;;;;;;;1.53;1.00;;;15.10;99.90;;;;;;5027559;28;20488;-59
2021/10/04 10:50:45;;;;;;;2.80;1.20;;;15.00;99.90;;;;;;5032721;28;20945;-59
2021/10/04 10:53:17;;;;;;;2.93;1.40;;;14.90;99.90;;;;;;5025722;28;20460;-59
2021/10/04 10:55:47;;;;;;;4.57;1.10;;;15.10;99.90;;;;;;5024233;28;20468;-58
2021/10/04 10:58:17;;;;;;;1.97;1.40;;;15.00;99.90;;;;;;5029435;28;20492;-59
2021/10/04 11:00:46;;;;;;;2.00;1.20;;;15.00;99.90;;;;;;5026160;28;20525;-58
2021/10/04 11:03:16;;;;;;;1.30;1.10;;;14.90;99.90;;;;;;5027871;28;20519;-58
2021/10/04 11:05:54;;;;;;;1.30;1.20;;;15.10;99.90;;;;;;5025686;28;20461;-58
2021/10/04 11:08:24;;;;;;;3.33;1.40;;;15.10;99.90;;;;;;5024783;28;20974;-58
2021/10/04 11:11:18;;;;;;;0.80;0.80;;;14.70;99.90;;;;;;5020410;28;20475;-58
2021/10/04 11:14:09;;;;;;;1.43;0.70;;;14.50;99.90;;;;;;5014655;28;20622;-58
2021/10/04 11:16:55;;;;;;;0.83;0.70;;;14.70;99.90;;;;;;5024754;28;20484;-59
2021/10/04 11:19:26;;;;;;;1.00;0.90;;;14.80;99.90;;;;;;5023865;28;20561;-58
2021/10/04 11:21:53;;;;;;;0.77;0.77;;;14.80;99.90;;;;;;5028384;28;20461;-58
2021/10/04 11:24:21;;;;;;;1.00;0.90;;;14.60;99.90;;;;;;5024980;28;20518;-57
2021/10/04 11:26:48;;;;;;;0.90;0.90;;;14.40;99.90;;;;;;5027552;28;20534;-59
2021/10/04 11:29:20;;;;;;;1.27;1.17;;;14.50;99.90;;;;;;5025930;28;20456;-58
2021/10/04 11:31:47;;;;;;;1.47;1.00;;;14.70;99.90;;;;;;5026154;28;20457;-58
2021/10/04 11:34:15;;;;;;;1.10;0.90;;;14.70;99.90;;;;;;5028386;28;20458;-57
2021/10/04 11:36:44;;;;;;;2.40;1.00;;;14.70;99.90;;;;;;5025386;28;20489;-58
2021/10/04 11:39:13;;;;;;;1.20;1.10;;;14.60;99.90;;;;;;5025632;28;20485;-58
2021/10/04 11:41:43;;;;;;;1.23;1.10;;;14.70;99.90;;;;;;5025016;28;20465;-58
2021/10/04 11:44:12;;;;;;;1.60;1.50;;;15.20;99.90;;;;;;5025970;28;20547;-58
2021/10/04 11:46:44;;;;;;;0.90;0.87;;;15.80;99.90;;;;;;5026525;28;20492;-58
2021/10/04 11:49:13;;;;;;;1.17;1.07;;;16.00;99.90;;;;;;5026315;28;20519;-59
2021/10/04 11:51:46;;;;;;;0.70;0.70;;;16.10;99.90;;;;;;5025813;28;20962;-58
2021/10/04 11:54:15;;;;;;;0.60;0.60;;;15.80;99.90;;;;;;5032418;28;20476;-58
2021/10/04 11:56:42;;;;;;;0.60;0.47;;;15.80;99.90;;;;;;5028534;28;20530;-57
2021/10/04 11:59:09;;;;;;;0.60;0.50;;;15.90;99.90;;;;;;5025817;28;20484;-59
2021/10/04 12:01:41;;;;;;;1.10;0.60;;;15.60;99.90;;;;;;5032694;28;20519;-59
2021/10/04 12:04:09;;;;;;;0.73;0.60;;;15.60;99.90;;;;;;5032388;28;20445;-59
2021/10/04 12:06:40;;;;;;;0.70;0.60;;;15.90;99.90;;;;;;5029104;28;20519;-58
2021/10/04 12:09:12;;;;;;;0.60;0.60;;;16.40;99.90;;;;;;5018510;28;20438;-59
2021/10/04 12:11:50;;;;;;;0.60;0.60;;;16.00;99.90;;;;;;5013216;28;20449;-58
2021/10/04 12:14:18;;;;;;;0.70;0.70;;;16.30;99.90;;;;;;5013060;28;20441;-59
2021/10/04 12:16:47;;;;;;;0.70;0.60;;;16.30;99.90;;;;;;5020746;28;20471;-58
2021/10/04 12:19:14;;;;;;;0.77;0.70;;;15.60;99.90;;;;;;5032712;28;20902;-59
2021/10/04 12:21:45;;;;;;;1.97;0.60;;;15.40;99.90;;;;;;5032827;28;20488;-59
2021/10/04 12:24:16;;;;;;;1.47;0.70;;;15.40;99.90;;;;;;5032743;28;20444;-58
2021/10/04 12:26:48;;;;;;;0.77;0.63;;;15.20;99.90;;;;;;5032494;28;20482;-58
2021/10/04 12:29:28;;;;;;;0.60;0.60;;;15.20;99.90;;;;;;5032920;28;20498;-57
2021/10/04 12:31:58;;;;;;;0.60;0.60;;;15.30;99.90;;;;;;5032574;28;20444;-58
2021/10/04 12:34:27;;;;;;;0.70;0.70;;;15.10;99.90;;;;;;5032725;28;20555;-57
2021/10/04 12:36:56;;;;;;;0.70;0.60;;;14.90;99.90;;;;;;5031716;28;20859;-59
2021/10/04 12:39:39;;;;;;;0.80;0.80;;;14.90;99.90;;;;;;5029122;28;20921;-59
2021/10/04 12:42:06;;;;;;;0.70;0.70;;;14.70;99.90;;;;;;5030303;28;20519;-58
2021/10/04 12:44:38;;;;;;;1.37;0.70;;;14.60;99.90;;;;;;5026808;28;20472;-57
2021/10/04 12:47:10;;;;;;;0.70;0.70;;;14.60;99.90;;;;;;5030643;28;20475;-58
2021/10/04 12:49:38;;;;;;;0.70;0.60;;;14.50;99.90;;;;;;5031757;28;20433;-58
2021/10/04 12:52:07;;;;;;;0.70;0.70;;;14.70;99.90;;;;;;5015090;28;20449;-57
2021/10/04 12:54:36;;;;;;;0.60;0.53;;;14.70;99.90;;;;;;5025510;28;20538;-59
2021/10/04 12:57:04;;;;;;;0.90;0.90;;;14.80;99.90;;;;;;5025284;28;20987;-58
2021/10/04 12:59:33;;;;;;;1.23;1.03;;;14.80;99.90;;;;;;5022930;28;20480;-58
2021/10/04 13:02:02;;;;;;;1.10;0.90;;;14.50;99.90;;;;;;5029387;28;20444;-59
2021/10/04 13:04:31;;;;;;;0.70;0.70;;;14.50;99.90;;;;;;5021142;28;20452;-58
2021/10/04 13:06:59;;;;;;;0.87;0.87;;;14.40;99.90;;;;;;5018826;28;20473;-58
2021/10/04 13:09:27;;;;;;;1.73;1.10;;;14.20;99.90;;;;;;5020398;28;20445;-58
2021/10/04 13:11:55;;;;;;;1.00;0.83;;;14.10;99.90;;;;;;5031405;28;20957;-57